sensor_id;sensor_type;location;lat;lon;timestamp;temperature;humidity
48876;DHT22;34689;51.644;5.618;2023-04-01T00:00:56;10.00;99.90
48876;DHT22;34689;51.644;5.618;2023-04-01T00:03:23;10.00;99.90
48876;DHT22;34689;51.644;5.618;2023-04-01T00:05:49;10.00;99.90
48876;DHT22;34689;51.644;5.618;2023-04-01T00:08:15;10.00;99.90
48876;DHT22;34689;51.644;5.618;2023-04-01T00:10:41;10.00;99.90
48876;DHT22;34689;51.644;5.618;2023-04-01T00:13:07;10.00;99.90
48876;DHT22;34689;51.644;5.618;2023-04-01T00:15:33;10.00;99.90
48876;DHT22;34689;51.644;5.618;2023-04-01T00:17:59;10.00;99.90
48876;DHT22;34689;51.644;5.618;2023-04-01T00:20:26;10.00;99.90
48876;DHT22;34689;51.644;5.618;2023-04-01T00:22:52;10.00;99.90
48876;DHT22;34689;51.644;5.618;2023-04-01T00:25:18;10.00;99.90
48876;DHT22;34689;51.644;5.618;2023-04-01T00:27:44;10.00;99.90
48876;DHT22;34689;51.644;5.618;2023-04-01T00:30:13;10.00;99.90
48876;DHT22;34689;51.644;5.618;2023-04-01T00:32:38;10.00;99.90
48876;DHT22;34689;51.644;5.618;2023-04-01T00:35:04;9.90;99.90
48876;DHT22;34689;51.644;5.618;2023-04-01T00:37:30;9.90;99.90
48876;DHT22;34689;51.644;5.618;2023-04-01T00:39:56;9.90;99.90
48876;DHT22;34689;51.644;5.618;2023-04-01T00:42:22;9.90;99.90
48876;DHT22;34689;51.644;5.618;2023-04-01T00:44:51;9.90;99.90
48876;DHT22;34689;51.644;5.618;2023-04-01T00:47:22;9.90;99.90
48876;DHT22;34689;51.644;5.618;2023-04-01T00:49:51;9.90;99.90
48876;DHT22;34689;51.644;5.618;2023-04-01T00:52:21;9.90;99.90
48876;DHT22;34689;51.644;5.618;2023-04-01T00:54:50;9.90;99.90
48876;DHT22;34689;51.644;5.618;2023-04-01T00:57:36;9.90;99.90
48876;DHT22;34689;51.644;5.618;2023-04-01T01:00:07;9.90;99.90
48876;DHT22;34689;51.644;5.618;2023-04-01T01:02:35;9.90;99.90
48876;DHT22;34689;51.644;5.618;2023-04-01T01:05:01;9.90;99.90
48876;DHT22;34689;51.644;5.618;2023-04-01T01:10:20;9.90;99.90
48876;DHT22;34689;51.644;5.618;2023-04-01T01:26:33;9.90;99.90
48876;DHT22;34689;51.644;5.618;2023-04-01T01:31:59;9.90;99.90
48876;DHT22;34689;51.644;5.618;2023-04-01T01:37:26;9.90;99.90
48876;DHT22;34689;51.644;5.618;2023-04-01T01:39:58;9.90;99.90
48876;DHT22;34689;51.644;5.618;2023-04-01T01:42:26;9.90;99.90
48876;DHT22;34689;51.644;5.618;2023-04-01T01:44:53;9.90;99.90
48876;DHT22;34689;51.644;5.618;2023-04-01T01:47:22;9.90;99.90
48876;DHT22;34689;51.644;5.618;2023-04-01T01:49:51;9.90;99.90
48876;DHT22;34689;51.644;5.618;2023-04-01T01:52:18;9.90;99.90
48876;DHT22;34689;51.644;5.618;2023-04-01T01:54:52;9.90;99.90
48876;DHT22;34689;51.644;5.618;2023-04-01T01:57:28;9.90;99.90
48876;DHT22;34689;51.644;5.618;2023-04-01T02:00:03;9.80;99.90
48876;DHT22;34689;51.644;5.618;2023-04-01T02:02:42;9.80;99.90
48876;DHT22;34689;51.644;5.618;2023-04-01T02:05:11;9.80;99.90
48876;DHT22;34689;51.644;5.618;2023-04-01T02:07:43;9.90;99.90
48876;DHT22;34689;51.644;5.618;2023-04-01T02:10:10;9.90;99.90
48876;DHT22;34689;51.644;5.618;2023-04-01T02:12:38;9.80;99.90
48876;DHT22;34689;51.644;5.618;2023-04-01T02:15:09;9.90;99.90
48876;DHT22;34689;51.644;5.618;2023-04-01T02:17:39;9.80;99.90
48876;DHT22;34689;51.644;5.618;2023-04-01T02:20:11;9.80;99.90
48876;DHT22;34689;51.644;5.618;2023-04-01T02:22:43;9.90;99.90
48876;DHT22;34689;51.644;5.618;2023-04-01T02:25:13;9.80;99.90
48876;DHT22;34689;51.644;5.618;2023-04-01T02:27:40;9.90;99.90
48876;DHT22;34689;51.644;5.618;2023-04-01T02:30:08;9.80;99.90
48876;DHT22;34689;51.644;5.618;2023-04-01T02:32:36;9.80;99.90
48876;DHT22;34689;51.644;5.618;2023-04-01T02:35:05;9.90;99.90
48876;DHT22;34689;51.644;5.618;2023-04-01T02:37:32;9.90;99.90
48876;DHT22;34689;51.644;5.618;2023-04-01T02:40:03;9.80;99.90
48876;DHT22;34689;51.644;5.618;2023-04-01T02:42:32;9.80;99.90
48876;DHT22;34689;51.644;5.618;2023-04-01T02:44:57;9.80;99.90
48876;DHT22;34689;51.644;5.618;2023-04-01T02:47:25;9.80;99.90
48876;DHT22;34689;51.644;5.618;2023-04-01T02:49:51;9.70;99.90
48876;DHT22;34689;51.644;5.618;2023-04-01T02:52:23;9.70;99.90
48876;DHT22;34689;51.644;5.618;2023-04-01T02:54:49;9.70;99.90
48876;DHT22;34689;51.644;5.618;2023-04-01T02:57:15;9.70;99.90
48876;DHT22;34689;51.644;5.618;2023-04-01T02:59:40;9.70;99.90
48876;DHT22;34689;51.644;5.618;2023-04-01T03:02:06;9.70;99.90
48876;DHT22;34689;51.644;5.618;2023-04-01T03:04:34;9.70;99.90
48876;DHT22;34689;51.644;5.618;2023-04-01T03:07:00;9.70;99.90
48876;DHT22;34689;51.644;5.618;2023-04-01T03:09:26;9.70;99.90
48876;DHT22;34689;51.644;5.618;2023-04-01T03:11:52;9.60;99.90
48876;DHT22;34689;51.644;5.618;2023-04-01T03:14:17;9.60;99.90
48876;DHT22;34689;51.644;5.618;2023-04-01T03:16:43;9.60;99.90
48876;DHT22;34689;51.644;5.618;2023-04-01T03:19:09;9.60;99.90
48876;DHT22;34689;51.644;5.618;2023-04-01T03:21:35;9.60;99.90
48876;DHT22;34689;51.644;5.618;2023-04-01T03:24:03;9.60;99.90
48876;DHT22;34689;51.644;5.618;2023-04-01T03:26:29;9.60;99.90
48876;DHT22;34689;51.644;5.618;2023-04-01T03:28:55;9.60;99.90
48876;DHT22;34689;51.644;5.618;2023-04-01T03:31:21;9.60;99.90
48876;DHT22;34689;51.644;5.618;2023-04-01T03:33:47;9.60;99.90
48876;DHT22;34689;51.644;5.618;2023-04-01T03:36:13;9.60;99.90
48876;DHT22;34689;51.644;5.618;2023-04-01T03:38:45;9.60;99.90
48876;DHT22;34689;51.644;5.618;2023-04-01T03:41:15;9.60;99.90
48876;DHT22;34689;51.644;5.618;2023-04-01T03:43:42;9.60;99.90
48876;DHT22;34689;51.644;5.618;2023-04-01T03:46:08;9.50;99.90
48876;DHT22;34689;51.644;5.618;2023-04-01T03:48:34;9.50;99.90
48876;DHT22;34689;51.644;5.618;2023-04-01T03:51:00;9.60;99.90
48876;DHT22;34689;51.644;5.618;2023-04-01T03:53:26;9.60;99.90
48876;DHT22;34689;51.644;5.618;2023-04-01T03:55:52;9.50;99.90
48876;DHT22;34689;51.644;5.618;2023-04-01T03:58:20;9.50;99.90
48876;DHT22;34689;51.644;5.618;2023-04-01T04:00:46;9.50;99.90
48876;DHT22;34689;51.644;5.618;2023-04-01T04:03:12;9.50;99.90
48876;DHT22;34689;51.644;5.618;2023-04-01T04:05:37;9.50;99.90
48876;DHT22;34689;51.644;5.618;2023-04-01T04:08:03;9.50;99.90
48876;DHT22;34689;51.644;5.618;2023-04-01T04:10:29;9.50;99.90
48876;DHT22;34689;51.644;5.618;2023-04-01T04:12:56;9.60;99.90
48876;DHT22;34689;51.644;5.618;2023-04-01T04:15:21;9.50;99.90
48876;DHT22;34689;51.644;5.618;2023-04-01T04:17:47;9.50;99.90
48876;DHT22;34689;51.644;5.618;2023-04-01T04:20:13;9.50;99.90
48876;DHT22;34689;51.644;5.618;2023-04-01T04:22:42;9.50;99.90
48876;DHT22;34689;51.644;5.618;2023-04-01T04:25:08;9.50;99.90
48876;DHT22;34689;51.644;5.618;2023-04-01T04:27:34;9.50;99.90
48876;DHT22;34689;51.644;5.618;2023-04-01T04:30:00;9.50;99.90
48876;DHT22;34689;51.644;5.618;2023-04-01T04:32:26;9.50;99.90
48876;DHT22;34689;51.644;5.618;2023-04-01T04:34:51;9.50;99.90
48876;DHT22;34689;51.644;5.618;2023-04-01T04:37:17;9.50;99.90
48876;DHT22;34689;51.644;5.618;2023-04-01T04:39:43;9.40;99.90
48876;DHT22;34689;51.644;5.618;2023-04-01T04:42:08;9.40;99.90
48876;DHT22;34689;51.644;5.618;2023-04-01T04:44:34;9.40;99.90
48876;DHT22;34689;51.644;5.618;2023-04-01T04:47:01;9.40;99.90
48876;DHT22;34689;51.644;5.618;2023-04-01T04:49:26;9.40;99.90
48876;DHT22;34689;51.644;5.618;2023-04-01T04:51:52;9.40;99.90
48876;DHT22;34689;51.644;5.618;2023-04-01T04:54:20;9.40;99.90
48876;DHT22;34689;51.644;5.618;2023-04-01T04:56:45;9.40;99.90
48876;DHT22;34689;51.644;5.618;2023-04-01T04:59:11;9.40;99.90
48876;DHT22;34689;51.644;5.618;2023-04-01T05:01:38;9.40;99.90
48876;DHT22;34689;51.644;5.618;2023-04-01T05:04:04;9.40;99.90
48876;DHT22;34689;51.644;5.618;2023-04-01T05:06:29;9.40;99.90
48876;DHT22;34689;51.644;5.618;2023-04-01T05:08:56;9.40;99.90
48876;DHT22;34689;51.644;5.618;2023-04-01T05:11:22;9.40;99.90
48876;DHT22;34689;51.644;5.618;2023-04-01T05:13:48;9.40;99.90
48876;DHT22;34689;51.644;5.618;2023-04-01T05:16:17;9.40;99.90
48876;DHT22;34689;51.644;5.618;2023-04-01T05:18:43;9.40;99.90
48876;DHT22;34689;51.644;5.618;2023-04-01T05:21:10;9.40;99.90
48876;DHT22;34689;51.644;5.618;2023-04-01T05:23:36;9.40;99.90
48876;DHT22;34689;51.644;5.618;2023-04-01T05:26:10;9.40;99.90
48876;DHT22;34689;51.644;5.618;2023-04-01T05:28:36;9.40;99.90
48876;DHT22;34689;51.644;5.618;2023-04-01T05:31:04;9.40;99.90
48876;DHT22;34689;51.644;5.618;2023-04-01T05:33:31;9.40;99.90
48876;DHT22;34689;51.644;5.618;2023-04-01T05:36:11;9.40;99.90
48876;DHT22;34689;51.644;5.618;2023-04-01T05:38:37;9.40;99.90
48876;DHT22;34689;51.644;5.618;2023-04-01T05:41:03;9.40;99.90
48876;DHT22;34689;51.644;5.618;2023-04-01T05:43:29;9.40;99.90
48876;DHT22;34689;51.644;5.618;2023-04-01T05:45:55;9.40;99.90
48876;DHT22;34689;51.644;5.618;2023-04-01T05:48:21;9.40;99.90
48876;DHT22;34689;51.644;5.618;2023-04-01T05:50:49;9.40;99.90
48876;DHT22;34689;51.644;5.618;2023-04-01T05:53:14;9.40;99.90
48876;DHT22;34689;51.644;5.618;2023-04-01T05:55:40;9.40;99.90
48876;DHT22;34689;51.644;5.618;2023-04-01T05:58:06;9.40;99.90
48876;DHT22;34689;51.644;5.618;2023-04-01T06:00:31;9.40;99.90
48876;DHT22;34689;51.644;5.618;2023-04-01T06:03:00;9.40;99.90
48876;DHT22;34689;51.644;5.618;2023-04-01T06:05:42;9.40;99.90
48876;DHT22;34689;51.644;5.618;2023-04-01T06:08:14;9.40;99.90
48876;DHT22;34689;51.644;5.618;2023-04-01T06:16:59;9.40;99.90
48876;DHT22;34689;51.644;5.618;2023-04-01T06:19:41;9.40;99.90
48876;DHT22;34689;51.644;5.618;2023-04-01T06:30:45;9.50;99.90
48876;DHT22;34689;51.644;5.618;2023-04-01T06:33:43;9.50;99.90
48876;DHT22;34689;51.644;5.618;2023-04-01T06:39:09;9.50;99.90
48876;DHT22;34689;51.644;5.618;2023-04-01T06:50:20;9.50;99.90
48876;DHT22;34689;51.644;5.618;2023-04-01T06:53:02;9.60;99.90
48876;DHT22;34689;51.644;5.618;2023-04-01T06:58:06;9.60;99.90
48876;DHT22;34689;51.644;5.618;2023-04-01T07:00:39;9.60;99.90
48876;DHT22;34689;51.644;5.618;2023-04-01T07:03:10;9.70;99.90
48876;DHT22;34689;51.644;5.618;2023-04-01T07:05:41;9.70;99.90
48876;DHT22;34689;51.644;5.618;2023-04-01T07:08:15;9.70;99.90
48876;DHT22;34689;51.644;5.618;2023-04-01T07:13:39;9.70;99.90
48876;DHT22;34689;51.644;5.618;2023-04-01T07:16:14;9.70;99.90
48876;DHT22;34689;51.644;5.618;2023-04-01T07:18:59;9.70;99.90
48876;DHT22;34689;51.644;5.618;2023-04-01T07:21:31;9.70;99.90
48876;DHT22;34689;51.644;5.618;2023-04-01T07:24:05;9.70;99.90
48876;DHT22;34689;51.644;5.618;2023-04-01T07:26:32;9.70;99.90
48876;DHT22;34689;51.644;5.618;2023-04-01T07:28:57;9.80;99.90
48876;DHT22;34689;51.644;5.618;2023-04-01T07:35:00;9.80;99.90
48876;DHT22;34689;51.644;5.618;2023-04-01T07:37:30;9.80;99.90
48876;DHT22;34689;51.644;5.618;2023-04-01T07:43:42;9.80;99.90
48876;DHT22;34689;51.644;5.618;2023-04-01T07:49:01;9.90;99.90
48876;DHT22;34689;51.644;5.618;2023-04-01T07:57:43;9.90;99.90
48876;DHT22;34689;51.644;5.618;2023-04-01T08:00:30;9.90;99.90
48876;DHT22;34689;51.644;5.618;2023-04-01T08:06:31;10.00;99.90
48876;DHT22;34689;51.644;5.618;2023-04-01T08:17:10;10.00;99.90
48876;DHT22;34689;51.644;5.618;2023-04-01T08:19:44;10.00;99.90
48876;DHT22;34689;51.644;5.618;2023-04-01T08:22:29;9.90;99.90
48876;DHT22;34689;51.644;5.618;2023-04-01T08:24:58;9.90;99.90
48876;DHT22;34689;51.644;5.618;2023-04-01T08:27:37;9.90;99.90
48876;DHT22;34689;51.644;5.618;2023-04-01T08:33:10;9.90;99.90
48876;DHT22;34689;51.644;5.618;2023-04-01T08:38:21;9.90;99.90
48876;DHT22;34689;51.644;5.618;2023-04-01T08:41:28;9.90;99.90
48876;DHT22;34689;51.644;5.618;2023-04-01T08:49:50;9.90;99.90
48876;DHT22;34689;51.644;5.618;2023-04-01T08:52:37;9.90;99.90
48876;DHT22;34689;51.644;5.618;2023-04-01T08:58:03;9.90;99.90
48876;DHT22;34689;51.644;5.618;2023-04-01T09:00:33;10.00;99.90
48876;DHT22;34689;51.644;5.618;2023-04-01T09:19:30;10.00;99.90
48876;DHT22;34689;51.644;5.618;2023-04-01T09:22:13;10.00;99.90
48876;DHT22;34689;51.644;5.618;2023-04-01T09:25:20;10.00;99.90
48876;DHT22;34689;51.644;5.618;2023-04-01T09:31:14;10.10;99.90
48876;DHT22;34689;51.644;5.618;2023-04-01T09:36:50;10.10;99.90
48876;DHT22;34689;51.644;5.618;2023-04-01T09:39:43;10.10;99.90
48876;DHT22;34689;51.644;5.618;2023-04-01T09:50:46;10.10;99.90
48876;DHT22;34689;51.644;5.618;2023-04-01T09:59:08;10.20;99.90
48876;DHT22;34689;51.644;5.618;2023-04-01T10:02:00;10.20;99.90
48876;DHT22;34689;51.644;5.618;2023-04-01T10:04:57;10.20;99.90
48876;DHT22;34689;51.644;5.618;2023-04-01T10:07:36;10.20;99.90
48876;DHT22;34689;51.644;5.618;2023-04-01T10:22:04;10.30;99.90
48876;DHT22;34689;51.644;5.618;2023-04-01T10:33:29;10.30;99.90
48876;DHT22;34689;51.644;5.618;2023-04-01T10:49:42;10.40;99.90
48876;DHT22;34689;51.644;5.618;2023-04-01T11:09:32;10.70;99.90
48876;DHT22;34689;51.644;5.618;2023-04-01T11:20:58;10.80;99.90
48876;DHT22;34689;51.644;5.618;2023-04-01T11:31:39;10.80;99.90
48876;DHT22;34689;51.644;5.618;2023-04-01T11:37:47;10.80;99.90
48876;DHT22;34689;51.644;5.618;2023-04-01T11:43:16;10.80;99.90
48876;DHT22;34689;51.644;5.618;2023-04-01T11:45:57;10.80;99.90
48876;DHT22;34689;51.644;5.618;2023-04-01T11:51:19;10.80;99.90
48876;DHT22;34689;51.644;5.618;2023-04-01T11:57:01;10.80;99.90
48876;DHT22;34689;51.644;5.618;2023-04-01T12:11:12;10.80;99.90
48876;DHT22;34689;51.644;5.618;2023-04-01T12:24:51;10.90;99.90
48876;DHT22;34689;51.644;5.618;2023-04-01T12:27:39;10.90;99.90
48876;DHT22;34689;51.644;5.618;2023-04-01T12:32:46;10.90;99.90
48876;DHT22;34689;51.644;5.618;2023-04-01T12:51:50;10.80;99.90
48876;DHT22;34689;51.644;5.618;2023-04-01T12:59:48;10.80;99.90
48876;DHT22;34689;51.644;5.618;2023-04-01T13:05:20;10.80;99.90
48876;DHT22;34689;51.644;5.618;2023-04-01T13:08:05;10.80;99.90
48876;DHT22;34689;51.644;5.618;2023-04-01T13:38:30;10.90;99.90
48876;DHT22;34689;51.644;5.618;2023-04-01T13:41:10;10.90;99.90
48876;DHT22;34689;51.644;5.618;2023-04-01T13:44:28;10.80;99.90
48876;DHT22;34689;51.644;5.618;2023-04-01T13:46:39;10.80;99.90
48876;DHT22;34689;51.644;5.618;2023-04-01T14:00:46;10.80;99.90
48876;DHT22;34689;51.644;5.618;2023-04-01T14:08:52;10.80;99.90
48876;DHT22;34689;51.644;5.618;2023-04-01T14:11:44;10.70;99.90
48876;DHT22;34689;51.644;5.618;2023-04-01T14:37:17;10.60;99.90
48876;DHT22;34689;51.644;5.618;2023-04-01T14:40:19;10.60;99.90
48876;DHT22;34689;51.644;5.618;2023-04-01T14:51:02;10.60;99.90
48876;DHT22;34689;51.644;5.618;2023-04-01T14:53:33;10.60;99.90
48876;DHT22;34689;51.644;5.618;2023-04-01T14:56:02;10.60;99.90
48876;DHT22;34689;51.644;5.618;2023-04-01T14:58:50;10.60;99.90
48876;DHT22;34689;51.644;5.618;2023-04-01T15:09:13;10.60;99.90
48876;DHT22;34689;51.644;5.618;2023-04-01T15:28:50;10.60;99.90
48876;DHT22;34689;51.644;5.618;2023-04-01T15:31:38;10.60;99.90
48876;DHT22;34689;51.644;5.618;2023-04-01T15:34:16;10.60;99.90
48876;DHT22;34689;51.644;5.618;2023-04-01T15:45:31;10.60;99.90
48876;DHT22;34689;51.644;5.618;2023-04-01T15:54:03;10.60;99.90
48876;DHT22;34689;51.644;5.618;2023-04-01T16:04:59;10.60;99.90
48876;DHT22;34689;51.644;5.618;2023-04-01T16:07:52;10.60;99.90
48876;DHT22;34689;51.644;5.618;2023-04-01T16:22:11;10.60;99.90
48876;DHT22;34689;51.644;5.618;2023-04-01T16:25:18;10.50;99.90
48876;DHT22;34689;51.644;5.618;2023-04-01T16:38:52;10.60;99.90
48876;DHT22;34689;51.644;5.618;2023-04-01T16:41:24;10.60;99.90
48876;DHT22;34689;51.644;5.618;2023-04-01T16:44:24;10.60;99.90
48876;DHT22;34689;51.644;5.618;2023-04-01T16:46:56;10.60;99.90
48876;DHT22;34689;51.644;5.618;2023-04-01T16:49:39;10.70;99.90
48876;DHT22;34689;51.644;5.618;2023-04-01T16:57:28;10.70;99.90
48876;DHT22;34689;51.644;5.618;2023-04-01T17:00:12;10.80;99.90
48876;DHT22;34689;51.644;5.618;2023-04-01T17:03:11;10.70;99.90
48876;DHT22;34689;51.644;5.618;2023-04-01T17:11:26;10.80;99.90
48876;DHT22;34689;51.644;5.618;2023-04-01T17:22:39;10.80;99.90
48876;DHT22;34689;51.644;5.618;2023-04-01T17:28:34;10.80;99.90
48876;DHT22;34689;51.644;5.618;2023-04-01T17:34:00;10.70;99.90
48876;DHT22;34689;51.644;5.618;2023-04-01T17:39:22;10.80;99.90
48876;DHT22;34689;51.644;5.618;2023-04-01T17:42:04;10.70;99.90
48876;DHT22;34689;51.644;5.618;2023-04-01T17:50:14;10.80;99.90
48876;DHT22;34689;51.644;5.618;2023-04-01T17:58:28;10.70;99.90
48876;DHT22;34689;51.644;5.618;2023-04-01T18:08:55;10.70;99.90
48876;DHT22;34689;51.644;5.618;2023-04-01T18:22:20;10.60;99.90
48876;DHT22;34689;51.644;5.618;2023-04-01T18:27:36;10.60;99.90
48876;DHT22;34689;51.644;5.618;2023-04-01T18:33:03;10.50;99.90
48876;DHT22;34689;51.644;5.618;2023-04-01T18:36:03;10.50;99.90
48876;DHT22;34689;51.644;5.618;2023-04-01T18:38:40;10.50;99.90
48876;DHT22;34689;51.644;5.618;2023-04-01T18:44:34;10.40;99.90
48876;DHT22;34689;51.644;5.618;2023-04-01T18:49:29;10.30;99.90
48876;DHT22;34689;51.644;5.618;2023-04-01T18:57:46;10.20;99.90
48876;DHT22;34689;51.644;5.618;2023-04-01T19:00:22;10.20;99.90
48876;DHT22;34689;51.644;5.618;2023-04-01T19:03:27;10.20;99.90
48876;DHT22;34689;51.644;5.618;2023-04-01T19:06:06;10.20;99.90
48876;DHT22;34689;51.644;5.618;2023-04-01T19:08:38;10.20;99.90
48876;DHT22;34689;51.644;5.618;2023-04-01T19:11:30;10.20;99.90
48876;DHT22;34689;51.644;5.618;2023-04-01T19:14:15;10.20;99.90
48876;DHT22;34689;51.644;5.618;2023-04-01T19:19:58;10.20;99.90
48876;DHT22;34689;51.644;5.618;2023-04-01T19:25:43;10.10;99.90
48876;DHT22;34689;51.644;5.618;2023-04-01T19:32:12;10.00;99.90
48876;DHT22;34689;51.644;5.618;2023-04-01T19:42:49;9.90;99.90
48876;DHT22;34689;51.644;5.618;2023-04-01T19:45:41;9.90;99.90
48876;DHT22;34689;51.644;5.618;2023-04-01T19:51:04;9.90;99.90
48876;DHT22;34689;51.644;5.618;2023-04-01T19:56:44;9.80;99.90
48876;DHT22;34689;51.644;5.618;2023-04-01T19:59:18;9.80;99.90
48876;DHT22;34689;51.644;5.618;2023-04-01T20:02:19;9.70;99.90
48876;DHT22;34689;51.644;5.618;2023-04-01T20:04:51;9.70;99.90
48876;DHT22;34689;51.644;5.618;2023-04-01T20:13:06;9.70;99.90
48876;DHT22;34689;51.644;5.618;2023-04-01T20:15:45;9.60;99.90
48876;DHT22;34689;51.644;5.618;2023-04-01T20:18:22;9.60;99.90
48876;DHT22;34689;51.644;5.618;2023-04-01T20:20:56;9.60;99.90
48876;DHT22;34689;51.644;5.618;2023-04-01T20:23:43;9.60;99.90
48876;DHT22;34689;51.644;5.618;2023-04-01T20:26:12;9.60;99.90
48876;DHT22;34689;51.644;5.618;2023-04-01T20:28:46;9.70;99.90
48876;DHT22;34689;51.644;5.618;2023-04-01T20:31:34;9.60;99.90
48876;DHT22;34689;51.644;5.618;2023-04-01T20:34:30;9.70;99.90
48876;DHT22;34689;51.644;5.618;2023-04-01T20:45:56;9.50;99.90
48876;DHT22;34689;51.644;5.618;2023-04-01T20:48:37;9.60;99.90
48876;DHT22;34689;51.644;5.618;2023-04-01T20:51:29;9.60;99.90
48876;DHT22;34689;51.644;5.618;2023-04-01T20:54:19;9.50;99.90
48876;DHT22;34689;51.644;5.618;2023-04-01T20:57:12;9.50;99.90
48876;DHT22;34689;51.644;5.618;2023-04-01T21:05:08;9.50;99.90
48876;DHT22;34689;51.644;5.618;2023-04-01T21:07:51;9.50;99.90
48876;DHT22;34689;51.644;5.618;2023-04-01T21:16:08;9.50;99.90
48876;DHT22;34689;51.644;5.618;2023-04-01T21:19:01;9.40;99.90
48876;DHT22;34689;51.644;5.618;2023-04-01T21:35:28;9.20;99.90
48876;DHT22;34689;51.644;5.618;2023-04-01T21:38:40;9.20;99.90
48876;DHT22;34689;51.644;5.618;2023-04-01T21:54:43;9.00;99.90
48876;DHT22;34689;51.644;5.618;2023-04-01T21:57:48;9.10;99.90
48876;DHT22;34689;51.644;5.618;2023-04-01T22:05:56;8.90;99.90
48876;DHT22;34689;51.644;5.618;2023-04-01T22:11:04;8.90;99.90
48876;DHT22;34689;51.644;5.618;2023-04-01T22:19:12;8.80;99.90
48876;DHT22;34689;51.644;5.618;2023-04-01T22:22:01;8.80;99.90
48876;DHT22;34689;51.644;5.618;2023-04-01T22:27:41;8.80;99.90
48876;DHT22;34689;51.644;5.618;2023-04-01T22:30:32;8.80;99.90
48876;DHT22;34689;51.644;5.618;2023-04-01T22:33:47;8.70;99.90
48876;DHT22;34689;51.644;5.618;2023-04-01T22:44:05;8.70;99.90
48876;DHT22;34689;51.644;5.618;2023-04-01T22:46:54;8.70;99.90
48876;DHT22;34689;51.644;5.618;2023-04-01T22:49:41;8.70;99.90
48876;DHT22;34689;51.644;5.618;2023-04-01T22:52:35;8.70;99.90
48876;DHT22;34689;51.644;5.618;2023-04-01T22:55:10;8.70;99.90
48876;DHT22;34689;51.644;5.618;2023-04-01T22:57:44;8.70;99.90
48876;DHT22;34689;51.644;5.618;2023-04-01T23:00:22;8.70;99.90
48876;DHT22;34689;51.644;5.618;2023-04-01T23:03:17;8.60;99.90
48876;DHT22;34689;51.644;5.618;2023-04-01T23:05:51;8.60;99.90
48876;DHT22;34689;51.644;5.618;2023-04-01T23:11:18;8.60;99.90
48876;DHT22;34689;51.644;5.618;2023-04-01T23:16:50;8.60;99.90
48876;DHT22;34689;51.644;5.618;2023-04-01T23:19:27;8.50;99.90
48876;DHT22;34689;51.644;5.618;2023-04-01T23:22:06;8.50;99.90
48876;DHT22;34689;51.644;5.618;2023-04-01T23:24:41;8.50;99.90
48876;DHT22;34689;51.644;5.618;2023-04-01T23:27:19;8.40;99.90
48876;DHT22;34689;51.644;5.618;2023-04-01T23:29:47;8.40;99.90
48876;DHT22;34689;51.644;5.618;2023-04-01T23:32:18;8.40;99.90
48876;DHT22;34689;51.644;5.618;2023-04-01T23:34:56;8.40;99.90
48876;DHT22;34689;51.644;5.618;2023-04-01T23:37:23;8.40;99.90
48876;DHT22;34689;51.644;5.618;2023-04-01T23:39:58;8.40;99.90
48876;DHT22;34689;51.644;5.618;2023-04-01T23:42:59;8.40;99.90
48876;DHT22;34689;51.644;5.618;2023-04-01T23:45:18;8.40;99.90
48876;DHT22;34689;51.644;5.618;2023-04-01T23:47:49;8.30;99.90
48876;DHT22;34689;51.644;5.618;2023-04-01T23:50:23;8.40;99.90
48876;DHT22;34689;51.644;5.618;2023-04-01T23:55:27;8.40;99.90
48876;DHT22;34689;51.644;5.618;2023-04-01T23:58:18;8.40;99.90
